sensor_id;sensor_type;location;lat;lon;timestamp;pressure;altitude;pressure_sealevel;temperature;humidity
47430;BME280;33181;49.246;7.372;2023-05-22T00:01:21;98450.81;;;18.25;81.07
47430;BME280;33181;49.246;7.372;2023-05-22T00:03:53;98453.81;;;18.22;81.12
47430;BME280;33181;49.246;7.372;2023-05-22T00:06:20;98457.50;;;18.21;81.03
47430;BME280;33181;49.246;7.372;2023-05-22T00:08:47;98447.88;;;18.20;81.00
47430;BME280;33181;49.246;7.372;2023-05-22T00:11:13;98449.88;;;18.18;81.23
47430;BME280;33181;49.246;7.372;2023-05-22T00:13:39;98447.59;;;18.15;80.98
47430;BME280;33181;49.246;7.372;2023-05-22T00:16:05;98446.97;;;18.13;80.98
47430;BME280;33181;49.246;7.372;2023-05-22T00:18:31;98449.78;;;18.11;80.99
47430;BME280;33181;49.246;7.372;2023-05-22T00:20:57;98446.66;;;18.08;81.07
47430;BME280;33181;49.246;7.372;2023-05-22T00:23:23;98441.50;;;18.06;80.93
47430;BME280;33181;49.246;7.372;2023-05-22T00:25:50;98444.88;;;18.00;81.05
47430;BME280;33181;49.246;7.372;2023-05-22T00:28:16;98437.44;;;17.95;81.00
47430;BME280;33181;49.246;7.372;2023-05-22T00:30:42;98448.44;;;17.92;81.25
47430;BME280;33181;49.246;7.372;2023-05-22T00:33:08;98443.47;;;17.89;81.23
47430;BME280;33181;49.246;7.372;2023-05-22T00:35:34;98437.03;;;17.83;81.36
47430;BME280;33181;49.246;7.372;2023-05-22T00:38:02;98445.38;;;17.80;81.31
47430;BME280;33181;49.246;7.372;2023-05-22T00:40:30;98448.22;;;17.79;81.35
47430;BME280;33181;49.246;7.372;2023-05-22T00:42:55;98452.88;;;17.77;81.38
47430;BME280;33181;49.246;7.372;2023-05-22T00:45:21;98444.41;;;17.73;81.55
47430;BME280;33181;49.246;7.372;2023-05-22T00:47:52;98445.91;;;17.68;81.72
47430;BME280;33181;49.246;7.372;2023-05-22T00:50:18;98449.28;;;17.61;82.09
47430;BME280;33181;49.246;7.372;2023-05-22T00:52:45;98445.16;;;17.59;82.17
47430;BME280;33181;49.246;7.372;2023-05-22T00:55:13;98445.34;;;17.57;81.99
47430;BME280;33181;49.246;7.372;2023-05-22T00:57:40;98447.69;;;17.52;81.81
47430;BME280;33181;49.246;7.372;2023-05-22T01:00:12;98439.78;;;17.44;82.35
47430;BME280;33181;49.246;7.372;2023-05-22T01:02:38;98444.44;;;17.42;82.23
47430;BME280;33181;49.246;7.372;2023-05-22T01:05:07;98449.06;;;17.40;82.36
47430;BME280;33181;49.246;7.372;2023-05-22T01:07:35;98446.81;;;17.37;82.50
47430;BME280;33181;49.246;7.372;2023-05-22T01:10:05;98445.13;;;17.36;82.41
47430;BME280;33181;49.246;7.372;2023-05-22T01:13:03;98453.63;;;17.31;82.72
47430;BME280;33181;49.246;7.372;2023-05-22T01:15:44;98456.44;;;17.30;82.52
47430;BME280;33181;49.246;7.372;2023-05-22T01:21:51;98450.19;;;17.23;82.77
47430;BME280;33181;49.246;7.372;2023-05-22T01:25:06;98443.91;;;17.16;82.12
47430;BME280;33181;49.246;7.372;2023-05-22T01:27:54;98446.44;;;17.09;82.96
47430;BME280;33181;49.246;7.372;2023-05-22T01:33:22;98440.00;;;17.03;83.10
47430;BME280;33181;49.246;7.372;2023-05-22T01:35:52;98445.09;;;17.05;83.30
47430;BME280;33181;49.246;7.372;2023-05-22T01:38:20;98449.13;;;17.01;82.99
47430;BME280;33181;49.246;7.372;2023-05-22T01:40:47;98447.81;;;16.97;83.01
47430;BME280;33181;49.246;7.372;2023-05-22T01:43:17;98444.84;;;16.91;83.36
47430;BME280;33181;49.246;7.372;2023-05-22T01:45:43;98448.16;;;16.94;83.44
47430;BME280;33181;49.246;7.372;2023-05-22T01:48:09;98441.19;;;16.92;83.41
47430;BME280;33181;49.246;7.372;2023-05-22T01:50:37;98442.38;;;16.90;83.17
47430;BME280;33181;49.246;7.372;2023-05-22T01:53:23;98448.34;;;16.84;83.54
47430;BME280;33181;49.246;7.372;2023-05-22T01:56:19;98449.69;;;16.80;83.55
47430;BME280;33181;49.246;7.372;2023-05-22T01:59:34;98447.69;;;16.74;83.59
47430;BME280;33181;49.246;7.372;2023-05-22T02:02:06;98446.72;;;16.66;83.46
47430;BME280;33181;49.246;7.372;2023-05-22T02:04:42;98447.38;;;16.60;83.90
47430;BME280;33181;49.246;7.372;2023-05-22T02:07:12;98450.38;;;16.57;84.26
47430;BME280;33181;49.246;7.372;2023-05-22T02:09:39;98451.38;;;16.56;84.73
47430;BME280;33181;49.246;7.372;2023-05-22T02:12:06;98448.41;;;16.59;84.83
47430;BME280;33181;49.246;7.372;2023-05-22T02:14:35;98458.00;;;16.60;84.60
47430;BME280;33181;49.246;7.372;2023-05-22T02:17:01;98457.34;;;16.58;84.13
47430;BME280;33181;49.246;7.372;2023-05-22T02:19:27;98456.34;;;16.59;84.05
47430;BME280;33181;49.246;7.372;2023-05-22T02:21:53;98454.03;;;16.56;84.02
47430;BME280;33181;49.246;7.372;2023-05-22T02:24:20;98454.03;;;16.56;83.99
47430;BME280;33181;49.246;7.372;2023-05-22T02:26:48;98449.88;;;16.54;83.93
47430;BME280;33181;49.246;7.372;2023-05-22T02:29:13;98457.03;;;16.45;83.75
47430;BME280;33181;49.246;7.372;2023-05-22T02:31:39;98451.22;;;16.41;84.04
47430;BME280;33181;49.246;7.372;2023-05-22T02:34:05;98445.13;;;16.41;84.33
47430;BME280;33181;49.246;7.372;2023-05-22T02:36:31;98442.47;;;16.41;84.55
47430;BME280;33181;49.246;7.372;2023-05-22T02:39:00;98446.13;;;16.40;84.17
47430;BME280;33181;49.246;7.372;2023-05-22T02:41:25;98434.50;;;16.41;84.25
47430;BME280;33181;49.246;7.372;2023-05-22T02:43:51;98439.00;;;16.40;84.07
47430;BME280;33181;49.246;7.372;2023-05-22T02:46:17;98441.78;;;16.39;84.14
47430;BME280;33181;49.246;7.372;2023-05-22T02:48:43;98449.78;;;16.31;84.03
47430;BME280;33181;49.246;7.372;2023-05-22T02:51:10;98450.59;;;16.23;84.47
47430;BME280;33181;49.246;7.372;2023-05-22T02:53:36;98442.81;;;16.21;84.49
47430;BME280;33181;49.246;7.372;2023-05-22T02:56:07;98455.06;;;16.22;84.81
47430;BME280;33181;49.246;7.372;2023-05-22T02:58:33;98445.13;;;16.25;84.90
47430;BME280;33181;49.246;7.372;2023-05-22T03:00:59;98445.28;;;16.23;84.78
47430;BME280;33181;49.246;7.372;2023-05-22T03:03:24;98446.78;;;16.26;84.17
47430;BME280;33181;49.246;7.372;2023-05-22T03:05:50;98443.16;;;16.18;84.14
47430;BME280;33181;49.246;7.372;2023-05-22T03:08:19;98450.44;;;16.16;84.30
47430;BME280;33181;49.246;7.372;2023-05-22T03:10:45;98454.09;;;16.15;84.18
47430;BME280;33181;49.246;7.372;2023-05-22T03:13:11;98454.09;;;16.15;84.28
47430;BME280;33181;49.246;7.372;2023-05-22T03:15:37;98457.56;;;16.16;84.30
47430;BME280;33181;49.246;7.372;2023-05-22T03:18:03;98452.25;;;16.16;84.45
47430;BME280;33181;49.246;7.372;2023-05-22T03:20:29;98457.56;;;16.16;84.54
47430;BME280;33181;49.246;7.372;2023-05-22T03:22:56;98456.75;;;16.15;84.50
47430;BME280;33181;49.246;7.372;2023-05-22T03:25:21;98454.91;;;16.16;84.47
47430;BME280;33181;49.246;7.372;2023-05-22T03:27:47;98457.56;;;16.16;84.00
47430;BME280;33181;49.246;7.372;2023-05-22T03:30:13;98453.25;;;16.15;83.95
47430;BME280;33181;49.246;7.372;2023-05-22T03:32:39;98457.56;;;16.16;84.14
47430;BME280;33181;49.246;7.372;2023-05-22T03:35:06;98460.41;;;16.14;83.48
47430;BME280;33181;49.246;7.372;2023-05-22T03:37:32;98455.41;;;16.03;83.66
47430;BME280;33181;49.246;7.372;2023-05-22T03:39:58;98459.38;;;15.91;84.56
47430;BME280;33181;49.246;7.372;2023-05-22T03:42:24;98468.66;;;15.87;85.33
47430;BME280;33181;49.246;7.372;2023-05-22T03:44:50;98469.00;;;15.84;85.81
47430;BME280;33181;49.246;7.372;2023-05-22T03:47:16;98466.34;;;15.84;86.02
47430;BME280;33181;49.246;7.372;2023-05-22T03:49:41;98469.66;;;15.86;85.78
47430;BME280;33181;49.246;7.372;2023-05-22T03:52:09;98462.69;;;15.85;85.62
47430;BME280;33181;49.246;7.372;2023-05-22T03:54:35;98462.34;;;15.88;85.45
47430;BME280;33181;49.246;7.372;2023-05-22T03:57:02;98459.38;;;15.91;85.27
47430;BME280;33181;49.246;7.372;2023-05-22T03:59:27;98466.19;;;15.93;85.16
47430;BME280;33181;49.246;7.372;2023-05-22T04:01:53;98466.00;;;15.95;84.86
47430;BME280;33181;49.246;7.372;2023-05-22T04:04:19;98461.88;;;16.01;84.70
47430;BME280;33181;49.246;7.372;2023-05-22T04:06:45;98465.00;;;16.04;84.55
47430;BME280;33181;49.246;7.372;2023-05-22T04:09:12;98462.03;;;16.07;84.35
47430;BME280;33181;49.246;7.372;2023-05-22T04:11:38;98469.00;;;16.08;84.48
47430;BME280;33181;49.246;7.372;2023-05-22T04:14:05;98460.72;;;16.11;84.12
47430;BME280;33181;49.246;7.372;2023-05-22T04:16:32;98467.16;;;16.17;84.17
47430;BME280;33181;49.246;7.372;2023-05-22T04:18:58;98472.81;;;16.22;83.84
47430;BME280;33181;49.246;7.372;2023-05-22T04:21:27;98477.09;;;16.31;83.62
47430;BME280;33181;49.246;7.372;2023-05-22T04:23:53;98469.63;;;16.35;83.21
47430;BME280;33181;49.246;7.372;2023-05-22T04:26:19;98471.63;;;16.41;83.10
47430;BME280;33181;49.246;7.372;2023-05-22T04:28:46;98461.66;;;16.51;82.68
47430;BME280;33181;49.246;7.372;2023-05-22T04:31:12;98472.56;;;16.64;82.33
47430;BME280;33181;49.246;7.372;2023-05-22T04:33:38;98475.53;;;16.69;81.66
47430;BME280;33181;49.246;7.372;2023-05-22T04:36:05;98478.69;;;16.73;81.70
47430;BME280;33181;49.246;7.372;2023-05-22T04:38:33;98475.56;;;16.78;81.32
47430;BME280;33181;49.246;7.372;2023-05-22T04:41:01;98474.56;;;16.87;81.02
47430;BME280;33181;49.246;7.372;2023-05-22T04:43:28;98473.00;;;16.92;79.91
47430;BME280;33181;49.246;7.372;2023-05-22T04:45:54;98478.31;;;16.92;79.75
47430;BME280;33181;49.246;7.372;2023-05-22T04:48:21;98482.50;;;16.87;79.36
47430;BME280;33181;49.246;7.372;2023-05-22T04:50:48;98479.00;;;16.86;79.32
47430;BME280;33181;49.246;7.372;2023-05-22T04:53:15;98474.22;;;16.90;79.96
47430;BME280;33181;49.246;7.372;2023-05-22T04:55:41;98486.78;;;16.96;80.11
47430;BME280;33181;49.246;7.372;2023-05-22T04:58:07;98493.69;;;17.05;79.82
47430;BME280;33181;49.246;7.372;2023-05-22T05:00:33;98485.56;;;17.15;79.56
47430;BME280;33181;49.246;7.372;2023-05-22T05:02:59;98481.50;;;17.27;79.67
47430;BME280;33181;49.246;7.372;2023-05-22T05:05:26;98478.56;;;17.53;79.16
47430;BME280;33181;49.246;7.372;2023-05-22T05:07:51;98483.59;;;17.71;78.71
47430;BME280;33181;49.246;7.372;2023-05-22T05:10:18;98484.25;;;17.81;77.39
47430;BME280;33181;49.246;7.372;2023-05-22T05:12:44;98493.31;;;17.87;77.73
47430;BME280;33181;49.246;7.372;2023-05-22T05:15:10;98485.53;;;17.86;77.05
47430;BME280;33181;49.246;7.372;2023-05-22T05:17:36;98483.69;;;17.86;76.83
47430;BME280;33181;49.246;7.372;2023-05-22T05:20:04;98490.28;;;17.90;76.44
47430;BME280;33181;49.246;7.372;2023-05-22T05:22:32;98483.38;;;17.81;76.09
47430;BME280;33181;49.246;7.372;2023-05-22T05:24:59;98492.00;;;17.83;76.35
47430;BME280;33181;49.246;7.372;2023-05-22T05:27:25;98488.31;;;17.92;76.08
47430;BME280;33181;49.246;7.372;2023-05-22T05:29:52;98486.41;;;18.01;76.28
47430;BME280;33181;49.246;7.372;2023-05-22T05:32:18;98491.50;;;18.11;76.08
47430;BME280;33181;49.246;7.372;2023-05-22T05:34:44;98482.66;;;18.33;75.69
47430;BME280;33181;49.246;7.372;2023-05-22T05:37:10;98483.59;;;18.40;75.65
47430;BME280;33181;49.246;7.372;2023-05-22T05:39:35;98493.69;;;18.60;75.26
47430;BME280;33181;49.246;7.372;2023-05-22T05:42:01;98494.22;;;18.78;75.08
47430;BME280;33181;49.246;7.372;2023-05-22T05:44:27;98493.50;;;18.99;73.89
47430;BME280;33181;49.246;7.372;2023-05-22T05:46:53;98490.09;;;19.20;72.69
47430;BME280;33181;49.246;7.372;2023-05-22T05:49:19;98497.06;;;19.36;71.73
47430;BME280;33181;49.246;7.372;2023-05-22T05:51:45;98495.88;;;19.60;70.60
47430;BME280;33181;49.246;7.372;2023-05-22T05:54:11;98502.38;;;19.87;69.96
47430;BME280;33181;49.246;7.372;2023-05-22T05:56:37;98503.81;;;20.11;69.00
47430;BME280;33181;49.246;7.372;2023-05-22T05:59:03;98497.72;;;20.17;67.55
47430;BME280;33181;49.246;7.372;2023-05-22T06:01:32;98501.34;;;20.31;67.92
47430;BME280;33181;49.246;7.372;2023-05-22T06:03:58;98498.78;;;20.44;67.92
47430;BME280;33181;49.246;7.372;2023-05-22T06:06:30;98498.56;;;20.67;67.35
47430;BME280;33181;49.246;7.372;2023-05-22T06:09:05;98495.41;;;20.85;66.73
47430;BME280;33181;49.246;7.372;2023-05-22T06:11:32;98500.47;;;21.08;66.67
47430;BME280;33181;49.246;7.372;2023-05-22T06:14:00;98499.16;;;21.32;65.39
47430;BME280;33181;49.246;7.372;2023-05-22T06:16:28;98503.94;;;21.43;65.53
47430;BME280;33181;49.246;7.372;2023-05-22T06:18:55;98503.53;;;21.40;65.33
47430;BME280;33181;49.246;7.372;2023-05-22T06:21:22;98493.66;;;21.40;65.74
47430;BME280;33181;49.246;7.372;2023-05-22T06:23:49;98503.97;;;21.50;65.41
47430;BME280;33181;49.246;7.372;2023-05-22T06:26:16;98505.72;;;21.84;66.00
47430;BME280;33181;49.246;7.372;2023-05-22T06:28:42;98509.75;;;21.47;65.83
47430;BME280;33181;49.246;7.372;2023-05-22T06:31:09;98509.28;;;21.43;66.15
47430;BME280;33181;49.246;7.372;2023-05-22T06:33:35;98506.88;;;21.55;66.07
47430;BME280;33181;49.246;7.372;2023-05-22T06:36:03;98503.81;;;21.65;65.86
47430;BME280;33181;49.246;7.372;2023-05-22T06:38:33;98505.69;;;21.71;65.50
47430;BME280;33181;49.246;7.372;2023-05-22T06:40:59;98507.34;;;21.30;67.00
47430;BME280;33181;49.246;7.372;2023-05-22T06:43:25;98503.09;;;21.36;67.43
47430;BME280;33181;49.246;7.372;2023-05-22T06:45:50;98506.44;;;21.45;67.80
47430;BME280;33181;49.246;7.372;2023-05-22T06:48:17;98507.56;;;21.84;67.35
47430;BME280;33181;49.246;7.372;2023-05-22T06:50:45;98498.34;;;22.06;65.87
47430;BME280;33181;49.246;7.372;2023-05-22T06:53:11;98506.84;;;22.50;65.05
47430;BME280;33181;49.246;7.372;2023-05-22T06:55:37;98502.06;;;22.85;64.16
47430;BME280;33181;49.246;7.372;2023-05-22T06:58:04;98499.09;;;23.26;63.06
47430;BME280;33181;49.246;7.372;2023-05-22T07:00:29;98502.25;;;23.68;61.85
47430;BME280;33181;49.246;7.372;2023-05-22T07:02:55;98500.81;;;24.04;60.36
47430;BME280;33181;49.246;7.372;2023-05-22T07:05:22;98507.66;;;24.32;59.96
47430;BME280;33181;49.246;7.372;2023-05-22T07:07:47;98505.50;;;24.47;58.46
47430;BME280;33181;49.246;7.372;2023-05-22T07:10:15;98506.75;;;24.44;58.93
47430;BME280;33181;49.246;7.372;2023-05-22T07:12:41;98503.25;;;24.69;58.82
47430;BME280;33181;49.246;7.372;2023-05-22T07:15:08;98506.63;;;25.01;58.50
47430;BME280;33181;49.246;7.372;2023-05-22T07:17:36;98510.19;;;25.20;57.66
47430;BME280;33181;49.246;7.372;2023-05-22T07:20:03;98510.91;;;25.27;56.31
47430;BME280;33181;49.246;7.372;2023-05-22T07:22:30;98511.06;;;25.51;56.33
47430;BME280;33181;49.246;7.372;2023-05-22T07:24:55;98507.81;;;25.79;55.99
47430;BME280;33181;49.246;7.372;2023-05-22T07:27:22;98518.13;;;25.82;55.08
47430;BME280;33181;49.246;7.372;2023-05-22T07:29:48;98516.72;;;25.61;56.38
47430;BME280;33181;49.246;7.372;2023-05-22T07:32:16;98513.69;;;25.57;56.81
47430;BME280;33181;49.246;7.372;2023-05-22T07:34:41;98519.81;;;25.46;56.39
47430;BME280;33181;49.246;7.372;2023-05-22T07:37:12;98518.81;;;25.59;56.81
47430;BME280;33181;49.246;7.372;2023-05-22T07:39:38;98517.50;;;25.98;56.22
47430;BME280;33181;49.246;7.372;2023-05-22T07:42:05;98514.06;;;26.33;55.26
47430;BME280;33181;49.246;7.372;2023-05-22T07:44:31;98516.78;;;26.33;54.55
47430;BME280;33181;49.246;7.372;2023-05-22T07:46:58;98512.84;;;26.59;54.64
47430;BME280;33181;49.246;7.372;2023-05-22T07:49:25;98517.44;;;26.70;54.89
47430;BME280;33181;49.246;7.372;2023-05-22T07:51:51;98521.81;;;26.41;54.58
47430;BME280;33181;49.246;7.372;2023-05-22T07:54:18;98526.97;;;26.43;54.56
47430;BME280;33181;49.246;7.372;2023-05-22T07:56:44;98527.72;;;26.62;54.89
47430;BME280;33181;49.246;7.372;2023-05-22T07:59:14;98521.75;;;26.71;54.24
47430;BME280;33181;49.246;7.372;2023-05-22T08:01:41;98526.69;;;26.74;53.72
47430;BME280;33181;49.246;7.372;2023-05-22T08:04:07;98520.81;;;26.77;54.64
47430;BME280;33181;49.246;7.372;2023-05-22T08:06:33;98526.31;;;26.94;53.41
47430;BME280;33181;49.246;7.372;2023-05-22T08:09:03;98534.53;;;26.88;54.34
47430;BME280;33181;49.246;7.372;2023-05-22T08:11:31;98532.66;;;27.12;52.95
47430;BME280;33181;49.246;7.372;2023-05-22T08:13:57;98530.53;;;27.37;52.64
47430;BME280;33181;49.246;7.372;2023-05-22T08:16:24;98529.41;;;27.62;51.93
47430;BME280;33181;49.246;7.372;2023-05-22T08:18:52;98530.91;;;27.81;50.93
47430;BME280;33181;49.246;7.372;2023-05-22T08:21:56;98530.47;;;28.18;50.53
47430;BME280;33181;49.246;7.372;2023-05-22T08:24:47;98528.59;;;27.90;49.71
47430;BME280;33181;49.246;7.372;2023-05-22T08:27:18;98525.63;;;28.03;49.91
47430;BME280;33181;49.246;7.372;2023-05-22T08:29:44;98527.13;;;28.28;48.42
47430;BME280;33181;49.246;7.372;2023-05-22T08:32:57;98526.41;;;28.32;48.00
47430;BME280;33181;49.246;7.372;2023-05-22T08:35:53;98519.16;;;28.04;47.23
47430;BME280;33181;49.246;7.372;2023-05-22T08:38:41;98523.94;;;28.31;49.40
47430;BME280;33181;49.246;7.372;2023-05-22T08:41:14;98518.72;;;28.58;48.79
47430;BME280;33181;49.246;7.372;2023-05-22T08:43:52;98512.16;;;28.71;48.07
47430;BME280;33181;49.246;7.372;2023-05-22T08:47:11;98516.44;;;28.50;46.94
47430;BME280;33181;49.246;7.372;2023-05-22T08:49:42;98516.59;;;27.98;48.32
47430;BME280;33181;49.246;7.372;2023-05-22T08:52:21;98516.91;;;27.44;49.18
47430;BME280;33181;49.246;7.372;2023-05-22T08:54:53;98521.09;;;27.92;49.69
47430;BME280;33181;49.246;7.372;2023-05-22T08:57:21;98518.53;;;28.31;47.30
47430;BME280;33181;49.246;7.372;2023-05-22T08:59:48;98511.53;;;28.63;47.30
47430;BME280;33181;49.246;7.372;2023-05-22T09:02:16;98508.94;;;29.07;46.62
47430;BME280;33181;49.246;7.372;2023-05-22T09:04:43;98517.44;;;29.38;45.20
47430;BME280;33181;49.246;7.372;2023-05-22T09:07:10;98511.38;;;29.70;44.13
47430;BME280;33181;49.246;7.372;2023-05-22T09:09:42;98516.38;;;29.83;42.85
47430;BME280;33181;49.246;7.372;2023-05-22T09:12:09;98510.69;;;29.85;43.37
47430;BME280;33181;49.246;7.372;2023-05-22T09:14:43;98516.22;;;29.95;43.30
47430;BME280;33181;49.246;7.372;2023-05-22T09:17:13;98517.59;;;28.54;45.31
47430;BME280;33181;49.246;7.372;2023-05-22T09:19:43;98513.50;;;27.77;45.98
47430;BME280;33181;49.246;7.372;2023-05-22T09:22:14;98520.66;;;27.83;47.17
47430;BME280;33181;49.246;7.372;2023-05-22T09:24:44;98514.63;;;28.38;47.56
47430;BME280;33181;49.246;7.372;2023-05-22T09:27:11;98523.81;;;28.88;45.90
47430;BME280;33181;49.246;7.372;2023-05-22T09:29:55;98516.09;;;29.36;43.65
47430;BME280;33181;49.246;7.372;2023-05-22T09:32:22;98504.47;;;29.84;42.61
47430;BME280;33181;49.246;7.372;2023-05-22T09:34:49;98512.81;;;30.05;42.03
47430;BME280;33181;49.246;7.372;2023-05-22T09:37:16;98517.38;;;30.58;41.48
47430;BME280;33181;49.246;7.372;2023-05-22T09:39:44;98505.44;;;30.97;40.85
47430;BME280;33181;49.246;7.372;2023-05-22T09:42:11;98503.78;;;30.96;41.17
47430;BME280;33181;49.246;7.372;2023-05-22T09:44:42;98506.66;;;31.21;39.90
47430;BME280;33181;49.246;7.372;2023-05-22T09:47:12;98501.34;;;31.42;39.39
47430;BME280;33181;49.246;7.372;2023-05-22T09:49:43;98503.25;;;31.46;39.77
47430;BME280;33181;49.246;7.372;2023-05-22T09:52:09;98501.69;;;31.03;38.68
47430;BME280;33181;49.246;7.372;2023-05-22T09:54:44;98504.13;;;31.04;39.69
47430;BME280;33181;49.246;7.372;2023-05-22T09:57:25;98499.53;;;31.10;39.98
47430;BME280;33181;49.246;7.372;2023-05-22T10:00:25;98501.13;;;31.01;39.09
47430;BME280;33181;49.246;7.372;2023-05-22T10:03:16;98493.59;;;30.76;39.45
47430;BME280;33181;49.246;7.372;2023-05-22T10:05:54;98502.97;;;30.90;40.83
47430;BME280;33181;49.246;7.372;2023-05-22T10:08:43;98494.16;;;31.15;39.78
47430;BME280;33181;49.246;7.372;2023-05-22T10:11:11;98492.53;;;31.24;38.99
47430;BME280;33181;49.246;7.372;2023-05-22T10:13:38;98491.44;;;31.20;38.74
47430;BME280;33181;49.246;7.372;2023-05-22T10:16:07;98490.06;;;31.17;38.73
47430;BME280;33181;49.246;7.372;2023-05-22T10:18:37;98490.94;;;31.28;38.26
47430;BME280;33181;49.246;7.372;2023-05-22T10:21:23;98496.75;;;30.94;37.29
47430;BME280;33181;49.246;7.372;2023-05-22T10:23:50;98481.06;;;31.07;37.65
47430;BME280;33181;49.246;7.372;2023-05-22T10:26:16;98492.56;;;30.44;40.22
47430;BME280;33181;49.246;7.372;2023-05-22T10:28:52;98484.06;;;30.03;39.52
47430;BME280;33181;49.246;7.372;2023-05-22T10:34:23;98479.94;;;29.96;43.04
47430;BME280;33181;49.246;7.372;2023-05-22T10:42:18;98475.78;;;30.15;42.58
47430;BME280;33181;49.246;7.372;2023-05-22T10:44:47;98465.88;;;30.26;42.96
47430;BME280;33181;49.246;7.372;2023-05-22T10:47:15;98465.09;;;30.68;41.69
47430;BME280;33181;49.246;7.372;2023-05-22T10:49:43;98464.22;;;31.05;41.03
47430;BME280;33181;49.246;7.372;2023-05-22T10:52:10;98456.47;;;31.29;41.16
47430;BME280;33181;49.246;7.372;2023-05-22T10:54:43;98456.81;;;31.43;41.89
47430;BME280;33181;49.246;7.372;2023-05-22T10:57:16;98462.16;;;31.22;40.84
47430;BME280;33181;49.246;7.372;2023-05-22T10:59:43;98464.59;;;30.39;42.22
47430;BME280;33181;49.246;7.372;2023-05-22T11:02:25;98457.75;;;29.99;43.19
47430;BME280;33181;49.246;7.372;2023-05-22T11:08:06;98448.84;;;30.03;42.30
47430;BME280;33181;49.246;7.372;2023-05-22T11:10:56;98453.72;;;30.01;42.57
47430;BME280;33181;49.246;7.372;2023-05-22T11:13:25;98456.22;;;30.08;42.95
47430;BME280;33181;49.246;7.372;2023-05-22T11:15:54;98451.53;;;29.98;41.86
47430;BME280;33181;49.246;7.372;2023-05-22T11:18:27;98442.75;;;30.18;42.06
47430;BME280;33181;49.246;7.372;2023-05-22T11:20:54;98447.06;;;30.52;42.28
47430;BME280;33181;49.246;7.372;2023-05-22T11:23:25;98445.19;;;30.52;44.14
47430;BME280;33181;49.246;7.372;2023-05-22T11:25:51;98443.06;;;29.90;47.40
47430;BME280;33181;49.246;7.372;2023-05-22T11:28:17;98434.38;;;29.61;49.06
47430;BME280;33181;49.246;7.372;2023-05-22T11:30:43;98443.72;;;29.26;51.07
47430;BME280;33181;49.246;7.372;2023-05-22T11:33:08;98445.00;;;29.45;50.40
47430;BME280;33181;49.246;7.372;2023-05-22T11:35:37;98438.44;;;29.14;49.69
47430;BME280;33181;49.246;7.372;2023-05-22T11:38:06;98449.38;;;29.02;50.29
47430;BME280;33181;49.246;7.372;2023-05-22T11:40:32;98439.28;;;28.98;51.14
47430;BME280;33181;49.246;7.372;2023-05-22T11:42:58;98448.84;;;29.05;46.25
47430;BME280;33181;49.246;7.372;2023-05-22T11:45:28;98438.22;;;29.21;46.19
47430;BME280;33181;49.246;7.372;2023-05-22T11:47:54;98438.75;;;29.18;45.66
47430;BME280;33181;49.246;7.372;2023-05-22T11:50:22;98439.50;;;28.96;45.73
47430;BME280;33181;49.246;7.372;2023-05-22T11:52:48;98442.19;;;28.74;46.09
47430;BME280;33181;49.246;7.372;2023-05-22T11:55:15;98443.63;;;28.43;46.89
47430;BME280;33181;49.246;7.372;2023-05-22T11:57:41;98443.31;;;28.23;47.43
47430;BME280;33181;49.246;7.372;2023-05-22T12:00:09;98436.50;;;28.03;48.58
47430;BME280;33181;49.246;7.372;2023-05-22T12:02:35;98442.78;;;27.92;48.61
47430;BME280;33181;49.246;7.372;2023-05-22T12:05:01;98440.41;;;27.67;48.61
47430;BME280;33181;49.246;7.372;2023-05-22T12:07:27;98444.63;;;27.46;49.42
47430;BME280;33181;49.246;7.372;2023-05-22T12:09:56;98437.91;;;27.20;48.56
47430;BME280;33181;49.246;7.372;2023-05-22T12:12:23;98429.84;;;27.08;50.17
47430;BME280;33181;49.246;7.372;2023-05-22T12:14:49;98423.91;;;26.71;50.69
47430;BME280;33181;49.246;7.372;2023-05-22T12:17:16;98437.72;;;26.39;51.84
47430;BME280;33181;49.246;7.372;2023-05-22T12:19:44;98442.75;;;26.24;52.41
47430;BME280;33181;49.246;7.372;2023-05-22T12:22:11;98449.84;;;26.06;52.71
47430;BME280;33181;49.246;7.372;2023-05-22T12:24:40;98450.06;;;25.93;53.08
47430;BME280;33181;49.246;7.372;2023-05-22T12:27:10;98461.38;;;25.83;54.11
47430;BME280;33181;49.246;7.372;2023-05-22T12:29:37;98443.44;;;25.77;54.84
47430;BME280;33181;49.246;7.372;2023-05-22T12:32:08;98446.44;;;25.69;56.67
47430;BME280;33181;49.246;7.372;2023-05-22T12:34:45;98447.28;;;25.70;59.74
47430;BME280;33181;49.246;7.372;2023-05-22T12:37:22;98446.72;;;25.79;58.48
47430;BME280;33181;49.246;7.372;2023-05-22T12:42:20;98451.75;;;25.09;68.13
47430;BME280;33181;49.246;7.372;2023-05-22T12:44:46;98458.00;;;24.66;70.11
47430;BME280;33181;49.246;7.372;2023-05-22T12:47:12;98455.88;;;24.49;69.50
47430;BME280;33181;49.246;7.372;2023-05-22T12:49:38;98457.22;;;24.34;70.36
47430;BME280;33181;49.246;7.372;2023-05-22T12:52:04;98467.69;;;24.17;71.47
47430;BME280;33181;49.246;7.372;2023-05-22T12:54:30;98455.16;;;24.11;75.40
47430;BME280;33181;49.246;7.372;2023-05-22T12:56:58;98459.66;;;23.85;78.32
47430;BME280;33181;49.246;7.372;2023-05-22T12:59:24;98459.53;;;23.67;78.07
47430;BME280;33181;49.246;7.372;2023-05-22T13:01:50;98455.34;;;23.39;76.25
47430;BME280;33181;49.246;7.372;2023-05-22T13:04:16;98456.19;;;23.40;77.63
47430;BME280;33181;49.246;7.372;2023-05-22T13:06:42;98450.59;;;23.41;76.90
47430;BME280;33181;49.246;7.372;2023-05-22T13:09:09;98448.53;;;23.43;75.50
47430;BME280;33181;49.246;7.372;2023-05-22T13:11:41;98458.19;;;23.51;76.45
47430;BME280;33181;49.246;7.372;2023-05-22T13:14:07;98458.56;;;23.54;75.30
47430;BME280;33181;49.246;7.372;2023-05-22T13:16:33;98461.16;;;23.29;76.63
47430;BME280;33181;49.246;7.372;2023-05-22T13:19:02;98458.81;;;22.88;78.47
47430;BME280;33181;49.246;7.372;2023-05-22T13:21:28;98461.56;;;22.55;79.92
47430;BME280;33181;49.246;7.372;2023-05-22T13:23:54;98457.25;;;22.34;81.37
47430;BME280;33181;49.246;7.372;2023-05-22T13:26:23;98454.53;;;22.14;81.68
47430;BME280;33181;49.246;7.372;2023-05-22T13:28:55;98455.13;;;22.03;82.07
47430;BME280;33181;49.246;7.372;2023-05-22T13:31:21;98450.19;;;21.73;86.11